Time;durP1;ratioP1;P1;durP2;ratioP2;P2;SDS_P1;SDS_P2;PMS_P1;PMS_P2;Temp;Humidity;BMP_temperature;BMP_pressure;BME280_temperature;BME280_humidity;BME280_pressure;Samples;Min_cycle;Max_cycle;Signal;HPM_P1;HPM_P2
2021/01/31 00:02:21;;;;;;;16.77;10.67;;;;;;;;;;5031355;28;20683;-77
2021/01/31 00:04:51;;;;;;;17.10;10.97;;;;;;;;;;5031340;28;20572;-77
2021/01/31 00:07:17;;;;;;;18.90;12.20;;;;;;;;;;5031264;28;20182;-77
2021/01/31 00:09:43;;;;;;;16.67;10.60;;;;;;;;;;5030892;28;20240;-77
2021/01/31 00:12:12;;;;;;;17.77;11.07;;;;;;;;;;5014022;28;20298;-77
2021/01/31 00:14:38;;;;;;;17.73;11.37;;;;;;;;;;5014353;28;20202;-77
2021/01/31 00:17:04;;;;;;;18.23;10.67;;;;;;;;;;5031124;28;20178;-77
2021/01/31 00:19:30;;;;;;;17.30;11.00;;;;;;;;;;5014664;28;20182;-77
2021/01/31 00:21:57;;;;;;;16.13;10.47;;;;;;;;;;5031203;28;20705;-78
2021/01/31 00:24:23;;;;;;;19.87;11.37;;;;;;;;;;5032101;28;20248;-77
2021/01/31 00:26:49;;;;;;;15.47;10.67;;;;;;;;;;5014463;28;20213;-77
2021/01/31 00:29:15;;;;;;;16.57;10.43;;;;;;;;;;5014270;28;20232;-77
2021/01/31 00:31:43;;;;;;;15.77;10.37;;;;;;;;;;5030652;28;20184;-77
2021/01/31 00:34:09;;;;;;;17.07;10.47;;;;;;;;;;5030603;28;20649;-77
2021/01/31 00:36:35;;;;;;;17.10;10.93;;;;;;;;;;5030941;28;20253;-77
2021/01/31 00:39:01;;;;;;;18.40;11.20;;;;;;;;;;5031029;28;20186;-77
2021/01/31 00:41:27;;;;;;;16.60;11.20;;;;;;;;;;5014257;28;20642;-77
2021/01/31 00:43:53;;;;;;;16.10;10.47;;;;;;;;;;5031037;28;20234;-77
2021/01/31 00:46:19;;;;;;;16.03;10.37;;;;;;;;;;5014670;28;20192;-77
2021/01/31 00:48:45;;;;;;;16.30;10.57;;;;;;;;;;5031047;28;20182;-77
2021/01/31 00:51:11;;;;;;;18.43;10.50;;;;;;;;;;5030489;28;20181;-78
2021/01/31 00:53:37;;;;;;;16.23;10.50;;;;;;;;;;5035647;28;20226;-77
2021/01/31 00:56:03;;;;;;;16.53;9.77;;;;;;;;;;5036045;28;20304;-78
2021/01/31 00:58:29;;;;;;;16.87;10.63;;;;;;;;;;5034884;28;20176;-77
2021/01/31 01:00:55;;;;;;;16.90;10.73;;;;;;;;;;5034620;28;20606;-77
2021/01/31 01:03:21;;;;;;;16.50;10.17;;;;;;;;;;5036470;28;20210;-77
2021/01/31 01:05:47;;;;;;;15.00;10.20;;;;;;;;;;5035953;28;20200;-77
2021/01/31 01:08:12;;;;;;;17.23;11.20;;;;;;;;;;5036201;28;20205;-77
2021/01/31 01:10:38;;;;;;;18.10;10.17;;;;;;;;;;5017733;28;20580;-77
2021/01/31 01:13:05;;;;;;;14.57;9.17;;;;;;;;;;5034159;28;20723;-77
2021/01/31 01:15:31;;;;;;;14.47;9.73;;;;;;;;;;5034327;28;20230;-77
2021/01/31 01:17:57;;;;;;;16.77;10.03;;;;;;;;;;5018034;28;20652;-77
2021/01/31 01:20:24;;;;;;;15.00;9.67;;;;;;;;;;5017625;28;20189;-77
2021/01/31 01:22:50;;;;;;;14.93;8.93;;;;;;;;;;5017991;28;20175;-77
2021/01/31 01:25:17;;;;;;;14.97;9.63;;;;;;;;;;5034035;28;20208;-77
2021/01/31 01:27:43;;;;;;;17.40;9.83;;;;;;;;;;5034059;28;20184;-77
2021/01/31 01:30:10;;;;;;;15.37;9.43;;;;;;;;;;5017399;28;20175;-77
2021/01/31 01:32:37;;;;;;;13.20;8.67;;;;;;;;;;5033865;28;20239;-77
2021/01/31 01:35:03;;;;;;;15.47;9.97;;;;;;;;;;5033771;28;20194;-77
2021/01/31 01:37:29;;;;;;;16.83;9.77;;;;;;;;;;5034122;28;20246;-77
2021/01/31 01:39:55;;;;;;;13.60;8.77;;;;;;;;;;5034693;28;20179;-77
2021/01/31 01:42:21;;;;;;;14.63;9.27;;;;;;;;;;5035134;28;20180;-77
2021/01/31 01:44:47;;;;;;;15.07;9.33;;;;;;;;;;5017596;28;20680;-77
2021/01/31 01:47:18;;;;;;;15.80;9.60;;;;;;;;;;5033856;28;20191;-77
2021/01/31 01:49:45;;;;;;;16.17;9.87;;;;;;;;;;5017057;28;20453;-77
2021/01/31 01:52:23;;;;;;;14.33;9.63;;;;;;;;;;5033546;28;20222;-77
2021/01/31 01:54:54;;;;;;;15.73;9.80;;;;;;;;;;5033667;28;20207;-77
2021/01/31 01:57:21;;;;;;;13.83;9.00;;;;;;;;;;5033568;28;20183;-78
2021/01/31 01:59:48;;;;;;;14.10;8.80;;;;;;;;;;5033113;28;20715;-77
2021/01/31 02:02:14;;;;;;;15.83;10.13;;;;;;;;;;5033392;28;20179;-77
2021/01/31 02:04:40;;;;;;;15.27;10.20;;;;;;;;;;5033370;28;20276;-76
2021/01/31 02:07:06;;;;;;;14.50;9.27;;;;;;;;;;5033406;28;20689;-77
2021/01/31 02:09:32;;;;;;;15.47;9.83;;;;;;;;;;5016617;28;20636;-77
2021/01/31 02:11:59;;;;;;;15.67;9.60;;;;;;;;;;5016999;28;20276;-77
2021/01/31 02:14:25;;;;;;;14.73;9.23;;;;;;;;;;5033026;28;20218;-78
2021/01/31 02:16:52;;;;;;;15.00;9.63;;;;;;;;;;5033381;28;20200;-78
2021/01/31 02:19:25;;;;;;;14.57;9.27;;;;;;;;;;5016756;28;20213;-77
2021/01/31 02:22:10;;;;;;;14.63;9.63;;;;;;;;;;5033130;28;20260;-77
2021/01/31 02:24:37;;;;;;;14.70;8.73;;;;;;;;;;5034086;28;20224;-77
2021/01/31 02:27:09;;;;;;;16.13;9.73;;;;;;;;;;5033043;28;20172;-77
2021/01/31 02:29:51;;;;;;;16.43;9.60;;;;;;;;;;5033691;28;20257;-77
2021/01/31 02:32:36;;;;;;;15.90;9.80;;;;;;;;;;5033847;28;20180;-77
2021/01/31 02:35:08;;;;;;;16.27;9.63;;;;;;;;;;5033788;28;20201;-77
2021/01/31 02:37:38;;;;;;;15.93;9.43;;;;;;;;;;5016296;28;20714;-77
2021/01/31 02:40:04;;;;;;;13.50;7.97;;;;;;;;;;5032468;28;20181;-77
2021/01/31 02:42:30;;;;;;;15.60;9.13;;;;;;;;;;5032388;28;20189;-77
2021/01/31 02:45:15;;;;;;;12.90;8.53;;;;;;;;;;5033684;28;20204;-77
2021/01/31 02:47:47;;;;;;;15.20;9.47;;;;;;;;;;5015976;28;20188;-78
2021/01/31 02:50:19;;;;;;;13.03;8.30;;;;;;;;;;5015912;28;20232;-77
2021/01/31 02:52:46;;;;;;;13.70;8.83;;;;;;;;;;5016118;28;20221;-77
2021/01/31 02:55:14;;;;;;;16.13;9.30;;;;;;;;;;5032171;28;20204;-77
2021/01/31 02:57:40;;;;;;;14.80;9.37;;;;;;;;;;5015746;28;20209;-78
2021/01/31 03:00:11;;;;;;;13.70;8.67;;;;;;;;;;5032051;28;20185;-77
2021/01/31 03:02:52;;;;;;;13.60;8.87;;;;;;;;;;5032231;28;20188;-77
2021/01/31 03:05:18;;;;;;;15.33;8.63;;;;;;;;;;5031249;28;20212;-77
2021/01/31 03:07:47;;;;;;;15.93;9.40;;;;;;;;;;5032081;28;20182;-77
2021/01/31 03:10:14;;;;;;;14.03;9.00;;;;;;;;;;5031680;28;20189;-77
2021/01/31 03:12:54;;;;;;;15.50;9.50;;;;;;;;;;5032002;28;20746;-77
2021/01/31 03:15:21;;;;;;;15.03;9.80;;;;;;;;;;5031418;28;20249;-77
2021/01/31 03:17:56;;;;;;;14.27;8.90;;;;;;;;;;5031922;28;20723;-77
2021/01/31 03:20:23;;;;;;;14.90;9.43;;;;;;;;;;5015222;28;20178;-77
2021/01/31 03:22:55;;;;;;;14.30;9.63;;;;;;;;;;5031426;28;20187;-77
2021/01/31 03:25:25;;;;;;;15.30;9.13;;;;;;;;;;5031538;28;20568;-77
2021/01/31 03:27:51;;;;;;;13.93;8.53;;;;;;;;;;5031680;28;20674;-77
2021/01/31 03:30:18;;;;;;;16.60;9.33;;;;;;;;;;5032615;28;20184;-77
2021/01/31 03:32:50;;;;;;;13.17;8.63;;;;;;;;;;5031872;28;20216;-77
2021/01/31 03:35:21;;;;;;;14.70;9.07;;;;;;;;;;5011816;28;20202;-77
2021/01/31 03:38:02;;;;;;;14.97;8.90;;;;;;;;;;5011841;28;20221;-77
2021/01/31 03:40:28;;;;;;;12.40;8.17;;;;;;;;;;5011603;28;20191;-77
2021/01/31 03:42:54;;;;;;;13.43;8.07;;;;;;;;;;5011781;28;20182;-77
2021/01/31 03:45:23;;;;;;;13.80;8.40;;;;;;;;;;5012899;28;20202;-77
2021/01/31 03:47:56;;;;;;;12.17;8.40;;;;;;;;;;5011645;28;20579;-77
2021/01/31 03:50:22;;;;;;;12.70;7.63;;;;;;;;;;5011432;28;20191;-77
2021/01/31 03:52:48;;;;;;;14.80;8.90;;;;;;;;;;5011714;28;20293;-76
2021/01/31 03:55:14;;;;;;;12.53;8.10;;;;;;;;;;5011484;28;20201;-77
2021/01/31 03:57:54;;;;;;;14.47;8.43;;;;;;;;;;5011404;28;20259;-77
2021/01/31 04:00:22;;;;;;;11.73;7.77;;;;;;;;;;5011362;28;20241;-77
2021/01/31 04:02:52;;;;;;;15.70;8.37;;;;;;;;;;5011653;28;20193;-77
2021/01/31 04:05:18;;;;;;;12.67;8.30;;;;;;;;;;5011603;28;20216;-76
2021/01/31 04:07:44;;;;;;;12.50;8.00;;;;;;;;;;5012601;28;20181;-77
2021/01/31 04:10:10;;;;;;;12.97;8.30;;;;;;;;;;5012136;28;20181;-77
2021/01/31 04:12:38;;;;;;;12.60;8.57;;;;;;;;;;5011462;28;20688;-77
2021/01/31 04:15:23;;;;;;;13.53;8.33;;;;;;;;;;5011376;28;20202;-77
2021/01/31 04:17:49;;;;;;;13.47;8.57;;;;;;;;;;5012552;28;20180;-77
2021/01/31 04:20:16;;;;;;;15.30;8.50;;;;;;;;;;5011081;28;20262;-77
2021/01/31 04:22:42;;;;;;;12.50;8.20;;;;;;;;;;5011181;28;20228;-78
2021/01/31 04:25:08;;;;;;;13.53;8.53;;;;;;;;;;5014568;28;20256;-78
2021/01/31 04:27:34;;;;;;;14.93;8.70;;;;;;;;;;5030359;28;20178;-77
2021/01/31 04:30:00;;;;;;;12.30;8.20;;;;;;;;;;5030449;28;20190;-77
2021/01/31 04:32:26;;;;;;;12.80;7.83;;;;;;;;;;5014449;28;20220;-77
2021/01/31 04:34:52;;;;;;;14.50;8.27;;;;;;;;;;5010883;28;20207;-77
2021/01/31 04:37:20;;;;;;;14.67;8.23;;;;;;;;;;5011198;28;20537;-77
2021/01/31 04:39:46;;;;;;;13.30;8.07;;;;;;;;;;5010816;28;20193;-78
2021/01/31 04:42:12;;;;;;;12.30;7.87;;;;;;;;;;5011077;28;20185;-77
2021/01/31 04:44:38;;;;;;;12.60;7.90;;;;;;;;;;5010928;28;20280;-77
2021/01/31 04:47:07;;;;;;;10.70;7.07;;;;;;;;;;5010991;28;20262;-77
2021/01/31 04:49:52;;;;;;;14.70;8.07;;;;;;;;;;5010555;28;20210;-77
2021/01/31 04:52:21;;;;;;;12.53;7.87;;;;;;;;;;5011821;28;20251;-77
2021/01/31 04:54:51;;;;;;;11.70;7.77;;;;;;;;;;5010965;28;20210;-76
2021/01/31 04:57:36;;;;;;;14.30;8.30;;;;;;;;;;5011176;28;20187;-77
2021/01/31 05:00:03;;;;;;;13.93;7.90;;;;;;;;;;5012247;28;20192;-77
2021/01/31 05:02:34;;;;;;;13.70;8.00;;;;;;;;;;5010888;28;20708;-77
2021/01/31 05:05:00;;;;;;;13.13;7.90;;;;;;;;;;5010864;28;20234;-77
2021/01/31 05:07:52;;;;;;;12.43;8.07;;;;;;;;;;5010838;28;20181;-77
2021/01/31 05:10:18;;;;;;;10.97;7.40;;;;;;;;;;5009762;28;20610;-77
2021/01/31 05:12:53;;;;;;;13.40;8.07;;;;;;;;;;5010709;28;20690;-77
2021/01/31 05:15:23;;;;;;;11.27;7.50;;;;;;;;;;5011986;28;20201;-77
2021/01/31 05:17:50;;;;;;;13.70;8.23;;;;;;;;;;5010704;28;20247;-77
2021/01/31 05:20:17;;;;;;;10.80;7.33;;;;;;;;;;5010535;28;20186;-77
2021/01/31 05:22:45;;;;;;;14.50;8.40;;;;;;;;;;5010687;28;20194;-77
2021/01/31 05:25:12;;;;;;;13.90;8.70;;;;;;;;;;5013573;28;20313;-77
2021/01/31 05:27:38;;;;;;;11.03;7.43;;;;;;;;;;5013805;28;20185;-77
2021/01/31 05:30:05;;;;;;;12.67;8.10;;;;;;;;;;5029977;28;20187;-77
2021/01/31 05:32:31;;;;;;;13.53;8.00;;;;;;;;;;5030020;28;20698;-77
2021/01/31 05:34:57;;;;;;;13.80;8.33;;;;;;;;;;5011159;28;20191;-77
2021/01/31 05:37:23;;;;;;;14.30;8.00;;;;;;;;;;5011742;28;20192;-78
2021/01/31 05:39:56;;;;;;;12.93;8.20;;;;;;;;;;5014986;28;20497;-77
2021/01/31 05:42:24;;;;;;;14.13;8.00;;;;;;;;;;5014263;28;20260;-77
2021/01/31 05:45:04;;;;;;;13.43;8.00;;;;;;;;;;5014148;28;20298;-77
2021/01/31 05:47:37;;;;;;;13.93;8.40;;;;;;;;;;5015260;28;20182;-77
2021/01/31 05:50:23;;;;;;;13.50;7.70;;;;;;;;;;5014814;28;20204;-76
2021/01/31 05:52:49;;;;;;;12.73;7.97;;;;;;;;;;5025400;28;20278;-74
2021/01/31 05:55:32;;;;;;;12.90;8.00;;;;;;;;;;5033710;28;20200;-74
2021/01/31 05:58:16;;;;;;;12.30;7.90;;;;;;;;;;5017337;28;20564;-74
2021/01/31 06:00:42;;;;;;;12.87;7.83;;;;;;;;;;5034447;28;20171;-75
2021/01/31 06:03:09;;;;;;;15.10;9.07;;;;;;;;;;5033534;28;20196;-74
2021/01/31 06:05:35;;;;;;;14.03;7.97;;;;;;;;;;5034816;28;20180;-74
2021/01/31 06:08:03;;;;;;;13.07;7.77;;;;;;;;;;5056047;23;20230;-74
2021/01/31 06:10:29;;;;;;;12.80;8.33;;;;;;;;;;5033344;28;20246;-74
2021/01/31 06:13:02;;;;;;;13.17;8.03;;;;;;;;;;5033552;28;20201;-74
2021/01/31 06:15:42;;;;;;;12.73;8.20;;;;;;;;;;5033404;28;20179;-74
2021/01/31 06:18:13;;;;;;;12.23;7.93;;;;;;;;;;5033493;28;20188;-74
2021/01/31 06:20:40;;;;;;;14.77;8.30;;;;;;;;;;5033176;28;20175;-74
2021/01/31 06:23:06;;;;;;;12.37;8.00;;;;;;;;;;5033296;28;20183;-73
2021/01/31 06:25:39;;;;;;;12.30;8.20;;;;;;;;;;5033695;28;20185;-74
2021/01/31 06:28:11;;;;;;;12.70;7.70;;;;;;;;;;5016746;28;20658;-74
2021/01/31 06:30:53;;;;;;;12.20;7.63;;;;;;;;;;5032691;28;20217;-74
2021/01/31 06:33:19;;;;;;;13.43;7.73;;;;;;;;;;5032837;28;20211;-73
2021/01/31 06:35:44;;;;;;;12.53;8.10;;;;;;;;;;5032830;28;20200;-74
2021/01/31 06:38:18;;;;;;;14.43;8.53;;;;;;;;;;5032729;28;20197;-74
2021/01/31 06:41:03;;;;;;;14.77;7.93;;;;;;;;;;5032561;28;20214;-75
2021/01/31 06:43:41;;;;;;;14.70;8.20;;;;;;;;;;5032586;28;20194;-73
2021/01/31 06:46:10;;;;;;;13.80;8.43;;;;;;;;;;5033825;28;20673;-74
2021/01/31 06:48:55;;;;;;;13.97;8.27;;;;;;;;;;5033796;28;20253;-74
2021/01/31 06:51:21;;;;;;;15.23;8.13;;;;;;;;;;5032022;28;20185;-74
2021/01/31 06:53:54;;;;;;;13.57;7.80;;;;;;;;;;5033695;28;20304;-74
2021/01/31 06:56:26;;;;;;;13.97;8.47;;;;;;;;;;5033970;28;20211;-75
2021/01/31 06:58:55;;;;;;;13.50;8.40;;;;;;;;;;5034156;28;20206;-74
2021/01/31 07:01:40;;;;;;;12.73;7.93;;;;;;;;;;5026736;28;20206;-74
2021/01/31 07:04:42;;;;;;;15.07;8.73;;;;;;;;;;5030386;28;20195;-74
2021/01/31 07:07:08;;;;;;;12.83;7.80;;;;;;;;;;4981428;28;20563;-74
2021/01/31 07:09:53;;;;;;;12.63;8.17;;;;;;;;;;5015734;28;20204;-74
2021/01/31 07:12:45;;;;;;;13.17;7.90;;;;;;;;;;5032094;28;20181;-74
2021/01/31 07:15:14;;;;;;;11.93;7.53;;;;;;;;;;5013960;28;20641;-73
2021/01/31 07:17:57;;;;;;;12.90;7.70;;;;;;;;;;5031505;28;20245;-74
2021/01/31 07:20:25;;;;;;;14.37;8.17;;;;;;;;;;5032551;28;20225;-74
2021/01/31 07:23:15;;;;;;;15.00;8.47;;;;;;;;;;5028362;28;21402;-75
2021/01/31 07:25:43;;;;;;;16.17;8.97;;;;;;;;;;5023952;28;20288;-74
2021/01/31 07:28:10;;;;;;;14.00;8.20;;;;;;;;;;5029993;28;20677;-74
2021/01/31 07:30:36;;;;;;;13.67;8.67;;;;;;;;;;5013640;28;20183;-74
2021/01/31 07:33:02;;;;;;;15.37;9.10;;;;;;;;;;5033338;28;20200;-73
2021/01/31 07:35:30;;;;;;;12.47;8.27;;;;;;;;;;5032612;28;20234;-74
2021/01/31 07:38:19;;;;;;;14.43;8.70;;;;;;;;;;5015870;28;20200;-74
2021/01/31 07:40:46;;;;;;;13.20;8.20;;;;;;;;;;5005419;28;20193;-74
2021/01/31 07:43:13;;;;;;;13.50;8.40;;;;;;;;;;5032603;28;20610;-75
2021/01/31 07:45:39;;;;;;;15.70;8.83;;;;;;;;;;5049289;28;20192;-74
2021/01/31 07:48:24;;;;;;;19.83;11.07;;;;;;;;;;5034091;28;20196;-75
2021/01/31 07:50:51;;;;;;;19.93;9.60;;;;;;;;;;5033510;28;20564;-74
2021/01/31 07:53:24;;;;;;;14.70;8.47;;;;;;;;;;5048410;28;20276;-74
2021/01/31 07:55:50;;;;;;;14.87;8.40;;;;;;;;;;5032107;28;20185;-76
2021/01/31 07:58:26;;;;;;;12.77;8.13;;;;;;;;;;5031564;28;20202;-75
2021/01/31 08:00:52;;;;;;;14.20;8.47;;;;;;;;;;5031291;28;20275;-75
2021/01/31 08:03:26;;;;;;;13.07;8.17;;;;;;;;;;5031752;28;20666;-75
2021/01/31 08:05:54;;;;;;;13.50;8.67;;;;;;;;;;5048444;28;20184;-74
2021/01/31 08:08:39;;;;;;;13.87;8.63;;;;;;;;;;5031305;28;20225;-75
2021/01/31 08:11:06;;;;;;;13.77;8.87;;;;;;;;;;5032553;28;20259;-75
2021/01/31 08:13:33;;;;;;;14.73;9.23;;;;;;;;;;5047852;28;20645;-76
2021/01/31 08:15:59;;;;;;;14.17;8.50;;;;;;;;;;5042206;28;20178;-75
2021/01/31 08:18:25;;;;;;;14.10;9.07;;;;;;;;;;5051219;28;20261;-74
2021/01/31 08:20:51;;;;;;;15.13;9.20;;;;;;;;;;5049990;28;20171;-75
2021/01/31 08:23:24;;;;;;;14.40;9.00;;;;;;;;;;5031486;28;20260;-74
2021/01/31 08:26:00;;;;;;;14.40;8.83;;;;;;;;;;5032774;28;20177;-74
2021/01/31 08:28:28;;;;;;;15.70;9.70;;;;;;;;;;5014575;28;20675;-75
2021/01/31 08:31:03;;;;;;;22.40;11.77;;;;;;;;;;5030949;28;20227;-75
2021/01/31 08:33:39;;;;;;;19.13;10.43;;;;;;;;;;5032467;28;20188;-74
2021/01/31 08:36:20;;;;;;;16.03;9.33;;;;;;;;;;5014641;28;20174;-78
2021/01/31 08:38:49;;;;;;;16.93;9.27;;;;;;;;;;5032601;28;20664;-75
2021/01/31 08:41:29;;;;;;;15.83;9.87;;;;;;;;;;5032722;28;20220;-75
2021/01/31 08:43:57;;;;;;;16.10;9.70;;;;;;;;;;5031740;28;20216;-74
2021/01/31 08:46:29;;;;;;;17.20;9.60;;;;;;;;;;5016461;28;20174;-75
2021/01/31 08:49:03;;;;;;;17.00;9.20;;;;;;;;;;5031279;28;20208;-75
2021/01/31 08:51:29;;;;;;;16.27;9.80;;;;;;;;;;5028973;28;20190;-74
2021/01/31 08:54:14;;;;;;;14.97;9.70;;;;;;;;;;5015403;28;20298;-74
2021/01/31 08:56:41;;;;;;;19.27;10.83;;;;;;;;;;5031848;28;20273;-74
2021/01/31 08:59:10;;;;;;;16.33;9.97;;;;;;;;;;5032707;28;20213;-75
2021/01/31 09:01:37;;;;;;;16.10;8.80;;;;;;;;;;5031122;28;20194;-74
2021/01/31 09:04:04;;;;;;;15.43;9.60;;;;;;;;;;5010573;28;20198;-74
2021/01/31 09:06:34;;;;;;;16.40;9.73;;;;;;;;;;5029266;28;20190;-74
2021/01/31 09:09:01;;;;;;;17.07;10.40;;;;;;;;;;5013956;28;20571;-73
2021/01/31 09:11:27;;;;;;;18.97;11.30;;;;;;;;;;5010913;28;20177;-74
2021/01/31 09:13:53;;;;;;;14.53;9.37;;;;;;;;;;5013535;28;20217;-74
2021/01/31 09:16:21;;;;;;;16.03;10.03;;;;;;;;;;5013937;28;20546;-74
2021/01/31 09:18:47;;;;;;;18.20;10.57;;;;;;;;;;5013557;28;20251;-74
2021/01/31 09:21:20;;;;;;;16.93;10.10;;;;;;;;;;5027936;28;20182;-75
2021/01/31 09:23:46;;;;;;;17.60;9.73;;;;;;;;;;5033530;28;20216;-75
2021/01/31 09:26:12;;;;;;;16.63;9.87;;;;;;;;;;5020548;28;20187;-75
2021/01/31 09:28:39;;;;;;;16.53;9.63;;;;;;;;;;5014824;28;20205;-74
2021/01/31 09:31:05;;;;;;;16.23;9.33;;;;;;;;;;5018546;28;20270;-75
2021/01/31 09:33:32;;;;;;;18.57;11.10;;;;;;;;;;5034046;28;20300;-75
2021/01/31 09:36:15;;;;;;;16.97;10.50;;;;;;;;;;5034307;28;20212;-76
2021/01/31 09:38:42;;;;;;;15.27;9.70;;;;;;;;;;5034138;28;20228;-76
2021/01/31 09:41:10;;;;;;;17.50;10.60;;;;;;;;;;5035384;28;20204;-75
2021/01/31 09:43:37;;;;;;;15.57;9.47;;;;;;;;;;5035373;28;20190;-76
2021/01/31 09:46:04;;;;;;;18.07;10.23;;;;;;;;;;5017678;28;20189;-75
2021/01/31 09:48:31;;;;;;;16.70;10.20;;;;;;;;;;5034271;28;20276;-75
2021/01/31 09:51:01;;;;;;;15.53;9.57;;;;;;;;;;5017402;28;20179;-74
2021/01/31 09:53:40;;;;;;;17.87;10.53;;;;;;;;;;5034301;28;20204;-75
2021/01/31 09:56:07;;;;;;;17.33;9.77;;;;;;;;;;5034022;28;20563;-75
2021/01/31 09:58:36;;;;;;;17.43;11.10;;;;;;;;;;5032997;28;20681;-74
2021/01/31 10:01:10;;;;;;;27.50;17.60;;;;;;;;;;5032570;28;20187;-75
2021/01/31 10:03:39;;;;;;;23.17;13.67;;;;;;;;;;5026418;28;20672;-75
2021/01/31 10:06:08;;;;;;;17.97;11.03;;;;;;;;;;5033672;28;20265;-73
2021/01/31 10:08:34;;;;;;;16.70;9.93;;;;;;;;;;5033196;28;20225;-74
2021/01/31 10:11:19;;;;;;;16.47;9.87;;;;;;;;;;5032996;28;20198;-74
2021/01/31 10:13:46;;;;;;;16.77;10.33;;;;;;;;;;5033198;28;20317;-75
2021/01/31 10:16:17;;;;;;;16.60;10.43;;;;;;;;;;5033008;28;20715;-74
2021/01/31 10:18:43;;;;;;;16.00;9.80;;;;;;;;;;5031485;28;20212;-73
2021/01/31 10:21:27;;;;;;;17.00;9.77;;;;;;;;;;5032874;28;20182;-74
2021/01/31 10:24:03;;;;;;;16.57;9.83;;;;;;;;;;5031199;28;20192;-73
2021/01/31 10:26:29;;;;;;;14.13;9.80;;;;;;;;;;5032607;28;20188;-73
2021/01/31 10:29:03;;;;;;;14.43;9.43;;;;;;;;;;5033343;28;20628;-75
2021/01/31 10:31:37;;;;;;;16.57;10.10;;;;;;;;;;5016918;28;20229;-74
2021/01/31 10:34:04;;;;;;;14.93;8.90;;;;;;;;;;5016544;28;20210;-73
2021/01/31 10:36:33;;;;;;;13.60;9.20;;;;;;;;;;5033195;28;20182;-74
2021/01/31 10:39:00;;;;;;;15.40;9.37;;;;;;;;;;5034173;28;20198;-73
2021/01/31 10:41:26;;;;;;;14.17;9.27;;;;;;;;;;5016371;28;20701;-74
2021/01/31 10:43:56;;;;;;;14.37;9.60;;;;;;;;;;5032959;28;20187;-74
2021/01/31 10:46:22;;;;;;;14.90;10.07;;;;;;;;;;5033102;28;20191;-74
2021/01/31 10:48:48;;;;;;;15.23;9.33;;;;;;;;;;5016253;28;20210;-75
2021/01/31 10:51:14;;;;;;;14.27;9.43;;;;;;;;;;5033571;28;20193;-73
2021/01/31 10:53:40;;;;;;;14.93;9.73;;;;;;;;;;5016207;28;20593;-74
2021/01/31 10:56:06;;;;;;;13.27;9.17;;;;;;;;;;5032492;28;20181;-74
2021/01/31 10:58:33;;;;;;;14.83;9.43;;;;;;;;;;5032674;28;20199;-75
2021/01/31 11:00:59;;;;;;;13.10;9.50;;;;;;;;;;5016469;28;20178;-74
2021/01/31 11:03:25;;;;;;;13.10;9.30;;;;;;;;;;5034181;28;20652;-74
2021/01/31 11:05:52;;;;;;;13.37;9.50;;;;;;;;;;5033940;28;20258;-74
2021/01/31 11:08:18;;;;;;;14.50;9.47;;;;;;;;;;5032784;28;20297;-73
2021/01/31 11:10:45;;;;;;;13.63;9.13;;;;;;;;;;5015545;28;20790;-73
2021/01/31 11:13:11;;;;;;;12.80;9.20;;;;;;;;;;5032111;28;20202;-74
2021/01/31 11:15:37;;;;;;;15.17;9.97;;;;;;;;;;5015628;28;20185;-75
2021/01/31 11:18:03;;;;;;;14.67;8.87;;;;;;;;;;5033316;28;20288;-74
2021/01/31 11:20:29;;;;;;;13.90;9.20;;;;;;;;;;5015340;28;20186;-74
2021/01/31 11:22:55;;;;;;;15.67;9.67;;;;;;;;;;5031974;28;20536;-75
2021/01/31 11:25:21;;;;;;;14.30;9.33;;;;;;;;;;5028466;28;20187;-74
2021/01/31 11:27:47;;;;;;;15.23;9.13;;;;;;;;;;5032905;28;20216;-74
2021/01/31 11:30:13;;;;;;;12.07;8.77;;;;;;;;;;5030163;28;20187;-74
2021/01/31 11:32:39;;;;;;;13.73;8.90;;;;;;;;;;5032520;28;20182;-75
2021/01/31 11:35:06;;;;;;;13.67;9.30;;;;;;;;;;5032577;28;20317;-76
2021/01/31 11:37:32;;;;;;;14.40;9.57;;;;;;;;;;5015335;28;20203;-76
2021/01/31 11:39:57;;;;;;;14.07;8.93;;;;;;;;;;5031488;28;20186;-74
2021/01/31 11:42:23;;;;;;;14.83;9.37;;;;;;;;;;5031732;28;20178;-73
2021/01/31 11:44:49;;;;;;;13.43;9.63;;;;;;;;;;5032929;28;20186;-73
2021/01/31 11:47:15;;;;;;;14.53;9.70;;;;;;;;;;5015369;28;20213;-74
2021/01/31 11:49:41;;;;;;;13.80;9.10;;;;;;;;;;5031246;28;20182;-73
2021/01/31 11:52:07;;;;;;;14.47;9.73;;;;;;;;;;5032743;28;20266;-75
2021/01/31 11:54:33;;;;;;;14.70;9.93;;;;;;;;;;5032664;28;20213;-76
2021/01/31 11:57:00;;;;;;;13.87;9.50;;;;;;;;;;5014881;28;20298;-76
2021/01/31 11:59:26;;;;;;;14.70;9.53;;;;;;;;;;5030924;28;20175;-76
2021/01/31 12:01:52;;;;;;;13.93;9.37;;;;;;;;;;5013268;28;20183;-76
2021/01/31 12:04:18;;;;;;;16.87;9.53;;;;;;;;;;5030470;28;20227;-76
2021/01/31 12:06:44;;;;;;;13.60;8.97;;;;;;;;;;5014413;28;20194;-77
2021/01/31 12:09:10;;;;;;;13.43;9.63;;;;;;;;;;5030908;28;20225;-76
2021/01/31 12:11:37;;;;;;;15.10;9.63;;;;;;;;;;5014659;28;20236;-75
2021/01/31 12:14:03;;;;;;;13.80;9.03;;;;;;;;;;5014546;28;20298;-75
2021/01/31 12:16:29;;;;;;;14.93;9.90;;;;;;;;;;5014870;28;20205;-74
2021/01/31 12:18:55;;;;;;;12.60;8.70;;;;;;;;;;5031251;28;20615;-75
2021/01/31 12:21:23;;;;;;;13.83;9.10;;;;;;;;;;5014352;28;20179;-75
2021/01/31 12:23:49;;;;;;;15.67;10.37;;;;;;;;;;5014800;28;20183;-76
2021/01/31 12:26:15;;;;;;;13.70;9.67;;;;;;;;;;5007306;28;20714;-75
2021/01/31 12:28:41;;;;;;;15.30;9.77;;;;;;;;;;4994680;28;20302;-74
2021/01/31 12:31:11;;;;;;;13.57;9.27;;;;;;;;;;4994994;28;20183;-75
2021/01/31 12:33:37;;;;;;;13.93;9.10;;;;;;;;;;5022639;28;20696;-74
2021/01/31 12:36:03;;;;;;;14.10;9.37;;;;;;;;;;5047464;28;20237;-73
2021/01/31 12:38:29;;;;;;;14.47;8.97;;;;;;;;;;5013962;28;20273;-74
2021/01/31 12:40:55;;;;;;;13.47;9.10;;;;;;;;;;5031013;28;20634;-75
2021/01/31 12:43:21;;;;;;;12.67;8.77;;;;;;;;;;5031262;28;20187;-74
2021/01/31 12:45:46;;;;;;;12.77;8.67;;;;;;;;;;5031113;28;20237;-75
2021/01/31 12:48:13;;;;;;;14.23;9.27;;;;;;;;;;5034126;28;20204;-75
2021/01/31 12:50:43;;;;;;;13.03;9.00;;;;;;;;;;5019058;28;20529;-75
2021/01/31 12:53:10;;;;;;;13.67;9.07;;;;;;;;;;5052839;28;20198;-75
2021/01/31 12:55:36;;;;;;;11.57;8.67;;;;;;;;;;5035056;28;20659;-75
2021/01/31 12:58:04;;;;;;;11.50;8.17;;;;;;;;;;5035024;28;20198;-75
2021/01/31 13:00:30;;;;;;;12.37;8.50;;;;;;;;;;5051837;28;20181;-75
2021/01/31 13:02:56;;;;;;;12.97;8.93;;;;;;;;;;5034932;28;20182;-76
2021/01/31 13:05:23;;;;;;;12.00;7.87;;;;;;;;;;5035938;28;20601;-79
2021/01/31 13:07:49;;;;;;;11.17;7.97;;;;;;;;;;5018365;28;20673;-75
2021/01/31 13:10:15;;;;;;;12.00;8.47;;;;;;;;;;5034545;28;20179;-76
2021/01/31 13:12:41;;;;;;;11.77;8.20;;;;;;;;;;5034720;28;20202;-75
2021/01/31 13:15:07;;;;;;;11.20;8.50;;;;;;;;;;5034594;28;20201;-76
2021/01/31 13:17:33;;;;;;;13.40;9.13;;;;;;;;;;5034479;28;20601;-76
2021/01/31 13:19:59;;;;;;;11.03;8.30;;;;;;;;;;5018824;28;20171;-76
2021/01/31 13:22:25;;;;;;;11.63;8.20;;;;;;;;;;5050966;28;21231;-75
2021/01/31 13:24:51;;;;;;;12.40;8.90;;;;;;;;;;5034236;28;20601;-76
2021/01/31 13:27:17;;;;;;;12.43;9.10;;;;;;;;;;5017824;28;20222;-76
2021/01/31 13:29:43;;;;;;;11.70;8.47;;;;;;;;;;5033947;28;20177;-76
2021/01/31 13:32:09;;;;;;;11.93;8.33;;;;;;;;;;5034158;28;20179;-75
2021/01/31 13:34:35;;;;;;;12.47;8.63;;;;;;;;;;5033916;28;20199;-75
2021/01/31 13:37:01;;;;;;;11.87;8.30;;;;;;;;;;5033990;28;20237;-74
2021/01/31 13:39:28;;;;;;;11.30;8.40;;;;;;;;;;5033632;28;20622;-75
2021/01/31 13:41:54;;;;;;;13.03;8.60;;;;;;;;;;5017208;28;20646;-75
2021/01/31 13:44:20;;;;;;;11.70;7.90;;;;;;;;;;5033881;28;20182;-76
2021/01/31 13:46:47;;;;;;;11.40;8.20;;;;;;;;;;5050599;28;20695;-77
2021/01/31 13:49:13;;;;;;;12.70;8.27;;;;;;;;;;5033401;28;20218;-74
2021/01/31 13:51:39;;;;;;;9.93;7.40;;;;;;;;;;5032951;28;20542;-74
2021/01/31 13:54:05;;;;;;;10.77;7.67;;;;;;;;;;5033474;28;20263;-74
2021/01/31 13:56:31;;;;;;;10.43;7.73;;;;;;;;;;5024673;28;20702;-74
2021/01/31 13:58:57;;;;;;;10.63;6.90;;;;;;;;;;5026473;28;20244;-74
2021/01/31 14:01:23;;;;;;;10.80;7.30;;;;;;;;;;5031398;28;20179;-75
2021/01/31 14:03:49;;;;;;;11.00;8.13;;;;;;;;;;5049333;28;20178;-74
2021/01/31 14:06:15;;;;;;;10.00;7.20;;;;;;;;;;5016878;28;20185;-74
2021/01/31 14:08:41;;;;;;;10.00;7.17;;;;;;;;;;5032942;28;20225;-74
2021/01/31 14:11:07;;;;;;;11.57;7.70;;;;;;;;;;5032409;28;20190;-74
2021/01/31 14:13:33;;;;;;;11.67;7.53;;;;;;;;;;5033640;28;20202;-73
2021/01/31 14:15:59;;;;;;;9.30;6.57;;;;;;;;;;5034014;28;20272;-74
2021/01/31 14:18:25;;;;;;;10.83;7.47;;;;;;;;;;5049214;28;20202;-74
2021/01/31 14:20:51;;;;;;;10.50;7.43;;;;;;;;;;5015487;28;20179;-73
2021/01/31 14:23:18;;;;;;;11.20;8.17;;;;;;;;;;5044381;28;20244;-73
2021/01/31 14:25:44;;;;;;;11.30;8.20;;;;;;;;;;5031109;28;20232;-73
2021/01/31 14:28:10;;;;;;;12.07;8.07;;;;;;;;;;5033157;28;20699;-74
2021/01/31 14:30:36;;;;;;;11.37;7.83;;;;;;;;;;5015414;28;20650;-74
2021/01/31 14:33:02;;;;;;;10.53;7.47;;;;;;;;;;5012101;28;20227;-74
2021/01/31 14:35:29;;;;;;;11.33;7.70;;;;;;;;;;5032388;28;20253;-74
2021/01/31 14:37:55;;;;;;;9.20;7.03;;;;;;;;;;5032465;28;20202;-74
2021/01/31 14:40:21;;;;;;;9.57;7.20;;;;;;;;;;5032790;28;20218;-74